Time;durP1;ratioP1;P1;durP2;ratioP2;P2;SDS_P1;SDS_P2;PMS_P1;PMS_P2;Temp;Humidity;BMP_temperature;BMP_pressure;BME280_temperature;BME280_humidity;BME280_pressure;Samples;Min_cycle;Max_cycle;Signal;HPM_P1;HPM_P2
2021/12/04 00:00:46;;;;;;;85.60;42.10;;;;;;;-4.24;84.12;100351.67;1419591;90;21406;-89
2021/12/04 00:03:10;;;;;;;96.50;47.05;;;;;;;-4.24;84.02;100343.91;1439596;90;21399;-89
2021/12/04 00:05:39;;;;;;;92.05;43.15;;;;;;;-4.27;84.23;100340.16;1435514;90;21384;-89
2021/12/04 00:08:04;;;;;;;102.38;45.38;;;;;;;-4.29;84.30;100335.48;1440317;90;21436;-90
2021/12/04 00:10:31;;;;;;;93.45;46.70;;;;;;;-4.32;84.17;100334.30;1443076;89;22287;-90
2021/12/04 00:12:57;;;;;;;100.75;47.08;;;;;;;-4.32;83.94;100335.59;1437402;90;21406;-90
2021/12/04 00:15:23;;;;;;;88.92;41.90;;;;;;;-4.35;84.28;100337.84;1439284;90;21517;-90
2021/12/04 00:17:50;;;;;;;92.27;44.33;;;;;;;-4.34;84.31;100345.16;1423007;90;22530;-90
2021/12/04 00:20:16;;;;;;;84.55;40.95;;;;;;;-4.36;84.31;100340.49;1435700;89;21428;-89
2021/12/04 00:22:42;;;;;;;93.33;42.90;;;;;;;-4.36;84.07;100340.49;1439027;90;21614;-89
2021/12/04 00:25:09;;;;;;;91.28;44.75;;;;;;;-4.38;83.93;100343.57;1435754;89;22458;-87
2021/12/04 00:27:37;;;;;;;91.12;43.50;;;;;;;-4.40;83.84;100340.19;1455543;88;21605;-89
2021/12/04 00:30:06;;;;;;;90.95;46.23;;;;;;;-4.42;84.17;100346.72;1448943;89;21281;-89
2021/12/04 00:32:40;;;;;;;82.70;40.98;;;;;;;-4.42;83.76;100344.59;1459660;89;21628;-90
2021/12/04 00:35:17;;;;;;;96.90;44.05;;;;;;;-4.46;83.86;100346.88;1448881;89;22477;-89
2021/12/04 00:51:12;;;;;;;69.62;35.73;;;;;;;-4.54;83.63;100317.46;1461137;89;21451;-87
2021/12/04 00:53:38;;;;;;;73.90;39.08;;;;;;;-4.57;83.61;100318.41;1458751;88;21436;-88
2021/12/04 00:56:05;;;;;;;71.00;36.25;;;;;;;-4.60;83.63;100318.52;1445009;89;21429;-88
2021/12/04 00:58:31;;;;;;;68.05;36.73;;;;;;;-4.63;83.87;100318.63;1457045;89;22457;-88
2021/12/04 01:00:58;;;;;;;73.95;35.55;;;;;;;-4.65;83.79;100315.25;1463621;89;21369;-88
2021/12/04 01:03:25;;;;;;;66.57;33.75;;;;;;;-4.65;83.46;100315.25;1459531;89;21443;-89
2021/12/04 01:05:51;;;;;;;75.67;36.58;;;;;;;-4.65;83.38;100310.08;1456682;89;22467;-89
2021/12/04 01:08:18;;;;;;;68.17;34.15;;;;;;;-4.64;83.74;100302.72;1451925;89;21429;-88
2021/12/04 01:10:44;;;;;;;69.55;33.98;;;;;;;-4.63;83.86;100310.01;1458139;88;21436;-88
2021/12/04 01:13:11;;;;;;;74.75;33.53;;;;;;;-4.64;84.08;100307.87;1454828;88;22420;-88
2021/12/04 01:15:39;;;;;;;69.95;37.35;;;;;;;-4.63;84.35;100308.72;1446339;89;21340;-88
2021/12/04 01:18:06;;;;;;;69.82;34.08;;;;;;;-4.64;84.87;100304.01;1456907;88;21377;-90
2021/12/04 01:20:32;;;;;;;68.22;37.10;;;;;;;-4.67;84.73;100305.41;1462301;88;22316;-89
2021/12/04 01:22:58;;;;;;;80.03;40.23;;;;;;;-4.68;84.23;100307.61;1464043;89;21355;-88
2021/12/04 01:25:24;;;;;;;72.80;35.17;;;;;;;-4.71;84.05;100304.30;1460064;88;21451;-87
2021/12/04 01:27:50;;;;;;;79.35;39.95;;;;;;;-4.74;84.16;100306.54;1458321;89;21362;-88
2021/12/04 01:30:16;;;;;;;80.90;39.13;;;;;;;-4.75;84.23;100304.83;1463268;88;23478;-90
2021/12/04 01:32:42;;;;;;;90.15;42.67;;;;;;;-4.75;84.50;100290.63;1458767;88;22467;-87
2021/12/04 01:35:09;;;;;;;79.47;38.92;;;;;;;-4.76;84.54;100288.95;1460565;88;21414;-87
2021/12/04 01:37:36;;;;;;;74.62;38.92;;;;;;;-4.77;84.33;100286.83;1456703;89;21376;-87
2021/12/04 01:40:05;;;;;;;90.17;37.67;;;;;;;-4.74;84.01;100292.79;1460880;88;21568;-87
2021/12/04 01:42:35;;;;;;;76.62;38.92;;;;;;;-4.76;83.58;100299.28;1473584;88;21419;-87
2021/12/04 01:44:59;;;;;;;71.80;35.43;;;;;;;-4.78;83.79;100298.48;1484273;87;21380;-87
2021/12/04 01:47:25;;;;;;;80.72;39.05;;;;;;;-4.78;83.39;100290.73;1475231;88;21374;-87
2021/12/04 01:49:54;;;;;;;79.30;38.67;;;;;;;-4.79;83.33;100287.77;1478928;87;21374;-88
2021/12/04 01:52:21;;;;;;;85.77;41.73;;;;;;;-4.79;83.24;100284.73;1483335;87;22520;-88
2021/12/04 01:54:48;;;;;;;84.37;42.45;;;;;;;-4.79;82.92;100289.06;1481909;87;21433;-87
2021/12/04 01:57:15;;;;;;;85.10;42.73;;;;;;;-4.81;83.37;100288.27;1482511;88;21336;-87
2021/12/04 01:59:43;;;;;;;93.90;45.85;;;;;;;-4.79;83.30;100290.36;1476728;88;21389;-87
2021/12/04 02:02:09;;;;;;;84.15;42.00;;;;;;;-4.83;83.75;100293.50;1476808;87;23257;-88
2021/12/04 02:04:35;;;;;;;90.40;46.48;;;;;;;-4.84;84.20;100292.25;1481938;88;21462;-89
2021/12/04 02:07:04;;;;;;;88.12;44.50;;;;;;;-4.84;83.58;100285.80;1477591;87;21856;-89
2021/12/04 02:09:32;;;;;;;92.35;44.18;;;;;;;-4.85;83.35;100282.38;1491789;87;21481;-89
2021/12/04 02:11:58;;;;;;;105.12;48.52;;;;;;;-4.88;82.81;100279.06;1483487;87;21558;-89
2021/12/04 02:14:26;;;;;;;81.42;42.33;;;;;;;-4.92;83.17;100281.34;1478624;88;22645;-89
2021/12/04 02:16:52;;;;;;;90.42;42.48;;;;;;;-4.96;83.87;100279.32;1470706;87;22542;-90
2021/12/04 02:19:18;;;;;;;83.03;46.45;;;;;;;-4.95;83.79;100283.58;1479177;87;22335;-90
2021/12/04 02:21:44;;;;;;;81.55;42.73;;;;;;;-4.95;83.45;100277.58;1474840;87;21418;-90
2021/12/04 02:24:10;;;;;;;88.50;43.10;;;;;;;-4.96;83.12;100273.32;1472979;87;21404;-89
2021/12/04 02:26:37;;;;;;;91.22;43.50;;;;;;;-4.96;83.08;100275.91;1478245;87;21307;-89
2021/12/04 02:29:03;;;;;;;85.30;43.98;;;;;;;-4.99;82.94;100276.39;1480506;87;21389;-90
2021/12/04 02:31:29;;;;;;;86.65;42.43;;;;;;;-5.00;82.73;100278.59;1482312;87;21403;-89
2021/12/04 02:33:55;;;;;;;87.60;42.43;;;;;;;-5.01;82.83;100271.73;1466450;88;21382;-89
2021/12/04 02:36:22;;;;;;;78.97;40.85;;;;;;;-5.03;82.65;100259.80;1479472;88;21345;-89
2021/12/04 02:38:52;;;;;;;77.30;40.80;;;;;;;-5.03;82.47;100262.38;1479101;88;22239;-89
2021/12/04 02:41:22;;;;;;;75.57;36.45;;;;;;;-5.04;82.58;100264.09;1479831;87;21536;-89
2021/12/04 02:43:49;;;;;;;78.42;39.65;;;;;;;-5.07;83.08;100263.36;1479507;88;22644;-89
2021/12/04 02:46:17;;;;;;;64.82;34.05;;;;;;;-5.09;82.66;100265.14;1474598;87;21499;-89
2021/12/04 02:48:47;;;;;;;64.32;34.67;;;;;;;-5.13;83.55;100265.70;1529389;87;21227;-89
2021/12/04 02:51:15;;;;;;;66.42;33.85;;;;;;;-5.16;84.05;100261.94;1473730;87;21462;-89
2021/12/04 02:53:42;;;;;;;74.42;35.10;;;;;;;-5.17;83.81;100262.84;1474376;88;21412;-90
2021/12/04 02:56:08;;;;;;;70.00;33.60;;;;;;;-5.15;83.56;100261.06;1473510;87;22180;-89
2021/12/04 02:58:34;;;;;;;64.72;33.98;;;;;;;-5.15;83.23;100269.23;1476823;87;21433;-89
2021/12/04 03:01:03;;;;;;;69.70;35.25;;;;;;;-5.16;82.98;100261.94;1457778;88;21433;-89
2021/12/04 03:03:31;;;;;;;64.72;33.95;;;;;;;-5.12;82.99;100267.41;1477819;87;21396;-89
2021/12/04 03:05:58;;;;;;;64.12;31.00;;;;;;;-5.13;82.92;100258.41;1466361;88;21496;-89
2021/12/04 03:08:25;;;;;;;63.85;31.50;;;;;;;-5.12;83.14;100265.25;1475991;87;21574;-89
2021/12/04 03:10:52;;;;;;;69.75;33.30;;;;;;;-5.13;82.82;100260.55;1473133;88;21515;-89
2021/12/04 03:13:21;;;;;;;67.58;33.08;;;;;;;-5.12;82.86;100260.09;1473035;87;22458;-90
2021/12/04 03:15:56;;;;;;;59.27;30.30;;;;;;;-5.17;83.59;100255.10;1465552;88;21547;-90
2021/12/04 03:18:16;;;;;;;64.87;31.23;;;;;;;-5.24;83.91;100258.77;1474065;87;21588;-92
2021/12/04 03:20:44;;;;;;;55.60;29.80;;;;;;;-5.26;84.44;100267.03;1466121;87;21352;-90
2021/12/04 03:23:16;;;;;;;60.40;30.65;;;;;;;-5.29;83.92;100264.11;1476352;87;21470;-90
2021/12/04 03:25:42;;;;;;;62.75;30.50;;;;;;;-5.25;84.10;100257.09;1466654;88;23607;-88
2021/12/04 03:28:08;;;;;;;68.75;33.65;;;;;;;-5.25;84.00;100259.67;1474462;87;22469;-87
2021/12/04 03:30:42;;;;;;;58.15;28.42;;;;;;;-5.27;83.38;100255.84;1470816;87;21611;-88
2021/12/04 03:41:03;;;;;;;55.63;28.70;;;;;;;-5.44;82.94;100258.14;1470961;87;23315;-89
2021/12/04 03:43:30;;;;;;;52.53;28.00;;;;;;;-5.53;82.20;100250.27;1475578;87;21536;-89
2021/12/04 03:46:00;;;;;;;53.68;28.62;;;;;;;-5.61;82.08;100250.98;1489982;87;21381;-86
2021/12/04 03:51:02;;;;;;;60.78;27.58;;;;;;;-5.65;82.69;100245.52;1480389;87;21878;-86
2021/12/04 03:53:28;;;;;;;54.55;30.05;;;;;;;-5.67;82.76;100240.42;1486880;88;23489;-86
2021/12/04 03:55:55;;;;;;;56.15;27.32;;;;;;;-5.65;82.89;100246.80;1475308;88;21344;-86
2021/12/04 03:58:22;;;;;;;47.85;25.17;;;;;;;-5.62;82.74;100250.56;1480398;88;21336;-87
2021/12/04 04:00:49;;;;;;;45.50;26.27;;;;;;;-5.61;82.59;100243.67;1484332;87;21483;-87
2021/12/04 04:03:16;;;;;;;48.38;24.02;;;;;;;-5.62;82.37;100238.97;1479064;87;21344;-88
2021/12/04 04:05:42;;;;;;;57.23;27.13;;;;;;;-5.61;82.22;100229.06;1471965;88;22402;-88
2021/12/04 04:08:11;;;;;;;49.18;26.35;;;;;;;-5.60;82.00;100226.03;1482149;88;21375;-88
2021/12/04 04:10:36;;;;;;;54.53;28.27;;;;;;;-5.59;82.31;100216.95;1479184;88;21469;-88
2021/12/04 04:13:02;;;;;;;53.95;26.48;;;;;;;-5.61;82.45;100211.02;1480380;87;21389;-88
2021/12/04 04:15:29;;;;;;;49.05;24.92;;;;;;;-5.61;82.46;100211.44;1471052;87;22283;-87
2021/12/04 04:17:55;;;;;;;46.30;24.10;;;;;;;-5.62;82.79;100205.45;1478941;87;21330;-87
2021/12/04 04:20:22;;;;;;;51.50;25.45;;;;;;;-5.67;82.64;100206.03;1479592;87;21361;-87
2021/12/04 04:22:49;;;;;;;46.95;25.12;;;;;;;-5.69;82.50;100209.14;1478504;87;22634;-87
2021/12/04 04:25:17;;;;;;;49.73;26.52;;;;;;;-5.66;82.49;100211.61;1482766;88;21396;-88
2021/12/04 04:27:45;;;;;;;50.73;28.92;;;;;;;-5.69;82.53;100210.42;1467074;88;21410;-87
2021/12/04 04:30:15;;;;;;;51.58;28.38;;;;;;;-5.73;82.77;100207.08;1474353;87;21463;-87
2021/12/04 04:32:43;;;;;;;56.00;27.42;;;;;;;-5.71;82.69;100206.59;1480842;87;21975;-88
2021/12/04 04:35:14;;;;;;;55.08;26.77;;;;;;;-5.71;82.33;100205.30;1448511;87;21403;-87
2021/12/04 04:37:54;;;;;;;55.45;27.05;;;;;;;-5.70;82.17;100206.14;1484884;87;21544;-87
2021/12/04 04:57:20;;;;;;;56.18;28.92;;;;;;;-5.68;82.08;100206.94;1481688;87;21595;-87
2021/12/04 04:59:47;;;;;;;44.13;23.50;;;;;;;-5.82;82.70;100189.80;1476507;87;21548;-88
2021/12/04 05:10:19;;;;;;;45.88;22.73;;;;;;;-5.83;82.91;100197.14;1468246;88;21370;-88
2021/12/04 05:12:49;;;;;;;43.92;24.55;;;;;;;-5.82;82.80;100205.26;1469904;88;22352;-88
2021/12/04 05:20:33;;;;;;;40.08;21.42;;;;;;;-5.87;83.17;100212.29;1470150;88;21561;-88
2021/12/04 05:22:53;;;;;;;41.10;23.67;;;;;;;-5.85;83.70;100215.67;1474455;88;21529;-89
2021/12/04 05:25:20;;;;;;;47.38;24.18;;;;;;;-5.80;83.69;100220.23;1467566;88;22418;-89
2021/12/04 05:27:46;;;;;;;42.53;22.62;;;;;;;-5.75;83.81;100217.91;1473655;87;21539;-89
2021/12/04 05:30:12;;;;;;;40.30;20.77;;;;;;;-5.74;83.49;100215.72;1472689;88;21451;-89
2021/12/04 05:32:40;;;;;;;54.03;25.97;;;;;;;-5.74;82.88;100209.72;1476849;88;21734;-90
2021/12/04 05:35:07;;;;;;;40.60;24.00;;;;;;;-5.72;82.57;100211.81;1468530;88;21340;-90
2021/12/04 05:37:33;;;;;;;45.65;22.37;;;;;;;-5.72;82.29;100207.95;1466623;87;22447;-89
2021/12/04 05:40:00;;;;;;;44.23;24.40;;;;;;;-5.71;82.24;100204.47;1476190;88;21570;-91
2021/12/04 05:42:29;;;;;;;43.17;24.92;;;;;;;-5.72;82.35;100200.22;1478522;88;21657;-90
2021/12/04 05:44:55;;;;;;;44.73;24.37;;;;;;;-5.75;81.88;100193.42;1473525;88;21338;-93
2021/12/04 05:47:34;;;;;;;44.00;21.70;;;;;;;-5.76;82.06;100187.02;1473003;88;21492;-93
2021/12/04 05:52:52;;;;;;;50.15;24.47;;;;;;;-5.76;82.20;100177.53;1480618;87;21403;-94
2021/12/04 05:55:19;;;;;;;47.62;23.75;;;;;;;-5.75;82.36;100173.25;1483214;87;21431;-94
2021/12/04 05:57:45;;;;;;;44.33;23.60;;;;;;;-5.72;82.17;100188.61;1481956;87;21470;-93
2021/12/04 06:00:20;;;;;;;53.68;29.48;;;;;;;-5.73;82.09;100193.35;1477516;87;21374;-93
2021/12/04 06:02:47;;;;;;;59.77;33.90;;;;;;;-5.72;82.42;100193.31;1478199;87;21389;-93
2021/12/04 06:05:14;;;;;;;77.15;34.98;;;;;;;-5.68;82.49;100196.63;1489717;87;21403;-93
2021/12/04 06:07:40;;;;;;;75.22;37.55;;;;;;;-5.61;82.58;100189.10;1476139;87;21375;-90
2021/12/04 06:10:08;;;;;;;72.40;34.50;;;;;;;-5.56;82.43;100194.09;1475050;87;21434;-91
2021/12/04 06:12:34;;;;;;;75.17;36.65;;;;;;;-5.52;82.28;100186.20;1472931;88;21440;-91
2021/12/04 06:15:02;;;;;;;75.50;35.43;;;;;;;-5.49;82.24;100188.68;1478991;88;22320;-91
2021/12/04 06:17:29;;;;;;;82.45;36.85;;;;;;;-5.45;82.46;100186.37;1486491;88;22253;-90
2021/12/04 06:22:43;;;;;;;66.35;29.67;;;;;;;-5.39;81.86;100192.23;1448327;89;21451;-90
2021/12/04 06:25:16;;;;;;;61.25;28.20;;;;;;;-5.45;81.55;100194.11;1459686;89;21312;-90
2021/12/04 06:27:43;;;;;;;59.60;27.32;;;;;;;-5.39;81.75;100193.06;1454086;89;21625;-90
2021/12/04 06:30:14;;;;;;;55.15;26.97;;;;;;;-5.33;82.08;100190.72;1454926;88;21506;-94
2021/12/04 06:32:41;;;;;;;67.97;31.37;;;;;;;-5.27;82.10;100178.89;1476985;88;21596;-93
2021/12/04 06:35:10;;;;;;;65.20;32.28;;;;;;;-5.20;81.93;100187.28;1478546;87;21514;-93
2021/12/04 06:37:37;;;;;;;71.50;33.23;;;;;;;-5.15;81.98;100191.39;1476669;87;21323;-93
2021/12/04 06:40:08;;;;;;;64.90;31.60;;;;;;;-5.08;81.76;100194.59;1482479;88;21389;-92
2021/12/04 06:42:34;;;;;;;81.53;35.98;;;;;;;-4.97;82.13;100199.38;1483286;88;21388;-92
2021/12/04 06:45:02;;;;;;;63.28;32.50;;;;;;;-4.89;82.08;100195.62;1484987;87;22343;-91
2021/12/04 06:47:29;;;;;;;52.00;26.20;;;;;;;-4.78;81.91;100197.78;1479517;88;21345;-91
2021/12/04 06:50:01;;;;;;;54.33;27.87;;;;;;;-4.68;82.04;100195.27;1478684;87;21374;-91
2021/12/04 06:52:26;;;;;;;66.50;29.82;;;;;;;-4.58;81.89;100198.34;1483165;87;21432;-91
2021/12/04 06:54:56;;;;;;;93.33;39.92;;;;;;;-4.51;81.85;100191.23;1470872;87;21426;-92
2021/12/04 06:57:22;;;;;;;116.55;51.53;;;;;;;-4.43;81.74;100196.92;1480416;87;21418;-90
2021/12/04 06:59:52;;;;;;;114.40;54.30;;;;;;;-4.38;81.64;100190.67;1474202;88;21404;-91
2021/12/04 07:02:19;;;;;;;104.72;50.03;;;;;;;-4.29;81.70;100195.94;1476263;87;21514;-91
2021/12/04 07:04:45;;;;;;;107.20;50.83;;;;;;;-4.19;81.65;100186.94;1481534;87;21506;-91
2021/12/04 07:07:12;;;;;;;97.50;47.70;;;;;;;-4.14;81.53;100182.44;1475985;87;21448;-89
2021/12/04 07:09:40;;;;;;;89.65;46.98;;;;;;;-4.09;81.72;100190.83;1477594;87;21316;-92
2021/12/04 07:12:09;;;;;;;75.32;37.78;;;;;;;-4.01;81.81;100188.41;1484242;87;21381;-91
2021/12/04 07:14:36;;;;;;;63.10;31.12;;;;;;;-3.94;82.01;100193.70;1478314;87;21470;-89
2021/12/04 07:17:04;;;;;;;68.25;33.90;;;;;;;-3.84;82.28;100192.91;1484642;87;21577;-89
2021/12/04 07:19:32;;;;;;;69.05;36.65;;;;;;;-3.75;82.44;100188.19;1473117;88;21307;-89
2021/12/04 07:21:58;;;;;;;63.30;33.58;;;;;;;-3.64;82.24;100184.71;1482071;87;21411;-90
2021/12/04 07:24:26;;;;;;;62.08;32.65;;;;;;;-3.48;82.42;100186.65;1481240;88;21477;-89
2021/12/04 07:26:56;;;;;;;55.05;26.60;;;;;;;-3.37;82.74;100181.86;1485530;87;21331;-89
2021/12/04 07:29:25;;;;;;;67.10;30.90;;;;;;;-3.28;82.46;100186.67;1485491;88;21484;-89
2021/12/04 07:31:52;;;;;;;67.32;27.82;;;;;;;-3.16;82.53;100189.19;1476536;88;21359;-89
2021/12/04 07:34:21;;;;;;;52.75;25.92;;;;;;;-3.06;82.32;100188.31;1486052;87;21515;-90
2021/12/04 07:36:51;;;;;;;52.30;28.90;;;;;;;-2.94;82.25;100192.95;1484519;87;21344;-91
2021/12/04 07:39:17;;;;;;;61.42;32.55;;;;;;;-2.85;81.89;100182.20;1479711;87;21396;-91
2021/12/04 07:41:43;;;;;;;63.05;31.48;;;;;;;-2.76;81.85;100183.08;1472150;88;21345;-92
2021/12/04 07:44:11;;;;;;;56.55;28.38;;;;;;;-2.69;81.68;100173.73;1483886;87;22305;-89
2021/12/04 07:46:42;;;;;;;61.98;32.00;;;;;;;-2.63;81.62;100170.86;1485598;87;21457;-89
2021/12/04 07:49:08;;;;;;;50.48;27.22;;;;;;;-2.54;81.51;100167.84;1491773;86;22283;-89
2021/12/04 07:51:35;;;;;;;49.27;26.45;;;;;;;-2.46;81.29;100169.63;1487626;87;21316;-89
2021/12/04 07:54:02;;;;;;;51.65;28.23;;;;;;;-2.39;81.16;100159.34;1494948;86;21425;-88
2021/12/04 07:56:30;;;;;;;57.58;29.55;;;;;;;-2.27;81.26;100161.38;1483658;87;22290;-90
2021/12/04 07:58:56;;;;;;;46.42;26.73;;;;;;;-2.18;81.18;100160.10;1485949;87;22366;-90
2021/12/04 08:01:22;;;;;;;52.33;28.95;;;;;;;-2.05;81.13;100163.77;1490816;86;21411;-89
2021/12/04 08:03:55;;;;;;;45.08;24.60;;;;;;;-1.90;81.18;100163.51;1496144;86;21278;-90
2021/12/04 08:06:21;;;;;;;49.33;29.02;;;;;;;-1.77;80.94;100153.35;1498222;86;22048;-87
2021/12/04 08:08:47;;;;;;;39.92;22.17;;;;;;;-1.62;80.96;100160.83;1506220;86;21488;-90
2021/12/04 08:11:13;;;;;;;38.65;22.35;;;;;;;-1.50;80.63;100152.41;1501171;85;21969;-89
2021/12/04 08:13:39;;;;;;;36.40;22.32;;;;;;;-1.36;80.81;100155.15;1494969;86;21374;-89
2021/12/04 08:16:06;;;;;;;42.38;24.37;;;;;;;-1.28;80.40;100153.94;1496177;86;21367;-90
2021/12/04 08:18:32;;;;;;;42.23;24.15;;;;;;;-1.23;80.21;100142.86;1501831;86;22378;-90
2021/12/04 08:20:59;;;;;;;41.70;25.10;;;;;;;-1.15;80.24;100141.54;1502200;86;21366;-90
2021/12/04 08:23:25;;;;;;;61.77;33.77;;;;;;;-1.07;80.18;100142.88;1505907;86;23014;-88
2021/12/04 08:25:51;;;;;;;47.00;26.77;;;;;;;-0.98;80.41;100138.06;1497456;86;21635;-87
2021/12/04 08:28:17;;;;;;;42.10;25.93;;;;;;;-0.89;80.33;100134.56;1509569;86;22972;-89
2021/12/04 08:30:44;;;;;;;49.17;26.03;;;;;;;-0.79;80.33;100133.17;1502669;86;21965;-89
2021/12/04 08:33:12;;;;;;;42.00;22.00;;;;;;;-0.72;80.05;100138.40;1503455;86;21596;-87
2021/12/04 08:52:33;;;;;;;34.30;19.80;;;;;;;1.10;76.90;100099.20;1491159;86;28524;-85
2021/12/04 08:54:59;;;;;;;33.87;22.53;;;;;;;0.97;76.58;100094.47;1461782;89;22212;-84
2021/12/04 08:57:25;;;;;;;28.63;18.20;;;;;;;1.07;77.26;100088.13;1440190;89;22306;-84
2021/12/04 08:59:52;;;;;;;23.67;14.63;;;;;;;1.07;77.26;100088.13;1481435;88;21948;-84
2021/12/04 09:02:18;;;;;;;25.87;15.93;;;;;;;1.07;75.98;100085.53;1461585;89;21907;-85
2021/12/04 09:04:46;;;;;;;23.67;16.30;;;;;;;1.10;76.67;100081.42;1461874;88;22627;-86
2021/12/04 09:07:16;;;;;;;26.67;15.57;;;;;;;1.11;76.43;100077.87;1392421;89;21647;-85
2021/12/04 09:09:43;;;;;;;29.27;15.60;;;;;;;1.15;76.70;100077.20;1476899;88;21819;-85
2021/12/04 09:12:11;;;;;;;20.07;11.97;;;;;;;1.15;76.41;100074.60;1469675;89;21787;-85
2021/12/04 09:14:41;;;;;;;25.90;16.83;;;;;;;1.19;75.71;100074.80;1468777;88;21848;-85
2021/12/04 09:17:11;;;;;;;22.93;15.60;;;;;;;1.25;76.04;100073.94;1462752;89;22750;-85
2021/12/04 09:19:38;;;;;;;25.33;15.83;;;;;;;1.31;76.15;100073.55;1454927;89;22955;-86
2021/12/04 09:22:11;;;;;;;28.30;17.57;;;;;;;1.37;76.19;100067.58;1459049;89;21752;-87
2021/12/04 09:24:42;;;;;;;27.70;17.87;;;;;;;1.35;76.11;100064.61;1446370;88;21805;-88
2021/12/04 09:27:18;;;;;;;28.27;17.90;;;;;;;1.52;75.93;100057.45;1461539;89;21811;-87
2021/12/04 09:29:54;;;;;;;27.90;17.47;;;;;;;1.52;75.93;100057.45;1468316;87;22932;-87
2021/12/04 09:32:41;;;;;;;28.43;16.73;;;;;;;1.95;74.43;100042.91;1466776;88;21939;-86
2021/12/04 09:40:37;;;;;;;27.83;15.60;;;;;;;3.24;71.86;100044.48;1467820;88;22333;-87
2021/12/04 10:04:42;;;;;;;19.03;12.73;;;;;;;7.01;61.75;100004.73;1478016;88;21626;-86
2021/12/04 10:21:36;;;;;;;18.43;11.83;;;;;;;7.58;58.86;99987.83;1449070;90;21729;-87
2021/12/04 10:35:03;;;;;;;26.13;16.43;;;;;;;6.60;55.29;99974.17;1471728;88;22558;-88
2021/12/04 10:37:30;;;;;;;28.10;17.43;;;;;;;6.20;58.65;99971.02;1473142;88;21397;-85
2021/12/04 10:40:02;;;;;;;27.33;16.17;;;;;;;6.11;59.48;99965.23;1464257;88;21404;-86
2021/12/04 10:42:37;;;;;;;18.43;12.87;;;;;;;6.00;59.20;99958.26;1473285;88;22470;-87
2021/12/04 10:44:59;;;;;;;19.05;13.25;;;;;;;6.01;59.61;99953.83;1473192;88;23839;-87
2021/12/04 10:47:27;;;;;;;23.20;15.07;;;;;;;6.03;59.54;99951.91;1468002;88;21381;-87
2021/12/04 10:55:38;;;;;;;18.53;12.23;;;;;;;5.66;59.43;99951.03;1464196;89;21544;-86
2021/12/04 11:22:30;;;;;;;14.77;10.97;;;;;;;6.22;57.84;99903.41;1442080;88;21449;-88
2021/12/04 11:46:48;;;;;;;17.10;12.60;;;;;;;6.48;56.08;99875.34;1434555;89;21470;-89
2021/12/04 11:49:18;;;;;;;22.83;13.40;;;;;;;6.57;56.25;99867.95;1433221;90;22456;-88
2021/12/04 11:52:01;;;;;;;18.20;13.13;;;;;;;6.63;56.06;99858.20;1430378;90;21514;-88
2021/12/04 11:54:33;;;;;;;17.30;12.37;;;;;;;6.67;56.07;99854.32;1439110;90;21585;-87
2021/12/04 11:57:10;;;;;;;21.87;13.40;;;;;;;6.71;54.78;99850.47;1421523;90;21434;-87
2021/12/04 11:59:40;;;;;;;20.53;13.40;;;;;;;6.76;55.15;99846.95;1432675;90;21519;-88
2021/12/04 12:02:12;;;;;;;18.80;11.43;;;;;;;6.89;55.64;99839.27;1440798;90;22457;-88
2021/12/04 12:04:49;;;;;;;17.10;11.63;;;;;;;7.05;54.54;99831.66;1433414;90;22014;-89
2021/12/04 12:07:27;;;;;;;18.53;14.20;;;;;;;7.43;55.58;99832.57;1430359;89;22304;-90
2021/12/04 12:10:13;;;;;;;21.73;13.47;;;;;;;7.83;54.67;99831.48;1433853;90;21510;-89
2021/12/04 12:12:43;;;;;;;18.43;13.00;;;;;;;8.16;53.78;99827.45;1435534;90;21501;-89
2021/12/04 12:15:32;;;;;;;15.43;11.13;;;;;;;8.61;53.73;99834.58;1431690;90;22744;-91
2021/12/04 12:18:16;;;;;;;19.23;12.60;;;;;;;8.90;49.32;99818.52;1431056;90;23400;-89
2021/12/04 12:20:54;;;;;;;12.17;9.83;;;;;;;9.01;51.31;99814.33;1435050;90;21758;-89
2021/12/04 12:23:23;;;;;;;16.13;12.33;;;;;;;8.92;47.91;99821.84;1435005;90;22341;-89
2021/12/04 12:36:28;;;;;;;15.63;11.30;;;;;;;9.43;49.28;99792.50;1420051;90;21540;-88
2021/12/04 12:39:04;;;;;;;14.90;9.87;;;;;;;9.59;49.15;99784.36;1431396;90;21666;-89
2021/12/04 12:41:41;;;;;;;12.33;10.63;;;;;;;9.69;47.41;99774.48;1429382;90;21591;-88
2021/12/04 12:44:28;;;;;;;15.43;11.53;;;;;;;9.87;47.70;99777.07;1426553;89;21485;-89
2021/12/04 12:47:02;;;;;;;18.77;14.07;;;;;;;9.90;47.44;99766.17;1438087;90;21481;-88
2021/12/04 12:49:39;;;;;;;19.67;11.33;;;;;;;9.94;46.46;99755.11;1436348;89;22516;-89
2021/12/04 12:52:24;;;;;;;12.57;10.23;;;;;;;9.87;45.05;99767.31;1431512;89;21485;-89
2021/12/04 12:54:58;;;;;;;14.97;11.03;;;;;;;9.88;47.30;99758.39;1430198;90;22063;-88
2021/12/04 12:57:39;;;;;;;16.90;12.80;;;;;;;10.16;45.41;99760.81;1439391;90;21584;-89
2021/12/04 13:11:44;;;;;;;9.87;8.47;;;;;;;10.61;44.82;99750.32;1411978;90;21529;-88
2021/12/04 13:14:19;;;;;;;12.80;9.73;;;;;;;10.65;41.16;99754.81;1439731;90;21637;-88
2021/12/04 13:16:50;;;;;;;14.13;11.67;;;;;;;9.87;42.12;99758.07;1443857;90;21577;-89
2021/12/04 13:19:21;;;;;;;14.13;10.13;;;;;;;9.82;43.77;99756.89;1432379;90;21684;-88
2021/12/04 13:21:51;;;;;;;11.50;9.87;;;;;;;9.96;44.51;99760.25;1440025;90;21606;-87
2021/12/04 13:24:30;;;;;;;15.23;10.75;;;;;;;10.10;44.73;99766.75;1421161;90;21397;-87
2021/12/04 13:29:28;;;;;;;;;;;;;;;10.16;44.31;99760.81;1433063;90;23709;-87
2021/12/04 13:31:57;;;;;;;12.80;10.00;;;;;;;9.96;41.68;99769.50;1426319;90;20345;-88
2021/12/04 13:34:28;;;;;;;12.60;9.60;;;;;;;9.69;43.71;99767.88;1431838;90;21570;-88
2021/12/04 13:36:58;;;;;;;13.03;10.07;;;;;;;9.45;43.88;99769.41;1433112;90;21578;-88
2021/12/04 13:39:25;;;;;;;14.60;10.60;;;;;;;9.20;44.19;99771.06;1428800;90;22477;-88
2021/12/04 13:41:54;;;;;;;15.77;12.23;;;;;;;8.81;44.51;99769.30;1448040;86;21603;-88
2021/12/04 13:44:33;;;;;;;20.60;12.47;;;;;;;8.45;45.39;99775.88;1457768;88;23765;-87
2021/12/04 13:47:04;;;;;;;16.50;12.13;;;;;;;8.36;46.30;99770.16;1440356;89;21508;-88
2021/12/04 13:50:06;;;;;;;14.63;11.00;;;;;;;8.16;46.34;99769.95;1446800;89;21684;-90
2021/12/04 13:52:33;;;;;;;23.40;15.00;;;;;;;7.80;46.65;99761.97;1457078;88;22350;-90
2021/12/04 13:55:19;;;;;;;23.03;15.73;;;;;;;7.51;46.87;99761.60;1445449;89;21657;-88
2021/12/04 13:57:46;;;;;;;31.17;20.23;;;;;;;7.26;46.87;99762.23;1479161;87;21454;-87
2021/12/04 14:00:16;;;;;;;46.97;30.13;;;;;;;6.88;47.73;99763.47;1478899;87;22369;-87
2021/12/04 14:02:42;;;;;;;47.33;29.57;;;;;;;6.51;48.29;99770.73;1430414;87;22827;-88
2021/12/04 14:05:20;;;;;;;42.93;24.63;;;;;;;6.09;49.34;99767.00;1416799;91;22238;-86
2021/12/04 14:08:00;;;;;;;26.27;15.43;;;;;;;5.66;50.07;99768.56;1417709;91;21690;-85
2021/12/04 14:10:36;;;;;;;30.07;19.10;;;;;;;5.29;50.38;99775.62;1419965;91;21670;-89
2021/12/04 14:13:04;;;;;;;29.73;16.77;;;;;;;4.97;51.07;99773.91;1416751;91;22495;-85
2021/12/04 14:15:31;;;;;;;28.17;16.87;;;;;;;4.63;52.02;99776.34;1417554;92;21521;-85
2021/12/04 14:18:03;;;;;;;27.03;15.80;;;;;;;4.29;53.03;99780.41;1419203;92;21453;-86
2021/12/04 14:20:32;;;;;;;24.37;16.13;;;;;;;4.00;53.37;99777.02;1420376;91;22349;-86
2021/12/04 14:23:05;;;;;;;24.30;17.87;;;;;;;3.69;54.41;99771.21;1418242;91;21482;-85
2021/12/04 14:25:31;;;;;;;30.97;20.13;;;;;;;3.29;56.75;99770.36;1418063;92;21545;-85
2021/12/04 14:28:00;;;;;;;29.87;18.70;;;;;;;3.29;56.75;99758.41;1418294;92;21674;-86
2021/12/04 14:30:35;;;;;;;29.43;18.93;;;;;;;3.08;57.18;99758.41;1420437;92;21595;-86
2021/12/04 14:33:07;;;;;;;26.67;15.67;;;;;;;2.75;58.55;99758.70;1414433;92;22265;-86
2021/12/04 14:35:38;;;;;;;25.73;14.67;;;;;;;2.58;58.54;99758.63;1418516;92;24563;-87
2021/12/04 14:38:14;;;;;;;33.60;19.00;;;;;;;2.58;58.54;99758.63;1422202;92;22270;-86
2021/12/04 14:40:49;;;;;;;30.00;18.10;;;;;;;2.25;59.89;99758.03;1415226;92;21490;-86
2021/12/04 14:43:23;;;;;;;32.73;20.57;;;;;;;2.25;59.89;99758.03;1416445;92;22007;-86
2021/12/04 14:45:54;;;;;;;34.87;21.27;;;;;;;2.11;59.90;99756.87;1422370;92;22129;-86
2021/12/04 14:48:30;;;;;;;44.70;24.20;;;;;;;1.97;60.22;99768.30;1415974;91;21921;-86